sensor_id;sensor_type;location;lat;lon;timestamp;P1;durP1;ratioP1;P2;durP2;ratioP2
60372;SDS011;46216;52.220;5.134;2022-12-18T00:01:37;68.27;;;26.50;;
60372;SDS011;46216;52.220;5.134;2022-12-18T00:04:04;74.23;;;26.90;;
60372;SDS011;46216;52.220;5.134;2022-12-18T00:06:32;71.70;;;26.90;;
60372;SDS011;46216;52.220;5.134;2022-12-18T00:09:00;69.30;;;26.60;;
60372;SDS011;46216;52.220;5.134;2022-12-18T00:11:28;71.43;;;26.33;;
60372;SDS011;46216;52.220;5.134;2022-12-18T00:13:55;63.77;;;25.93;;
60372;SDS011;46216;52.220;5.134;2022-12-18T00:16:23;69.10;;;26.10;;
60372;SDS011;46216;52.220;5.134;2022-12-18T00:18:50;69.10;;;25.47;;
60372;SDS011;46216;52.220;5.134;2022-12-18T00:21:17;61.97;;;25.63;;
60372;SDS011;46216;52.220;5.134;2022-12-18T00:23:44;56.70;;;25.03;;
60372;SDS011;46216;52.220;5.134;2022-12-18T00:26:11;63.00;;;25.40;;
60372;SDS011;46216;52.220;5.134;2022-12-18T00:28:42;69.00;;;26.53;;
60372;SDS011;46216;52.220;5.134;2022-12-18T00:31:15;69.13;;;26.37;;
60372;SDS011;46216;52.220;5.134;2022-12-18T00:33:43;66.67;;;26.03;;
60372;SDS011;46216;52.220;5.134;2022-12-18T00:36:11;66.17;;;26.60;;
60372;SDS011;46216;52.220;5.134;2022-12-18T00:38:44;63.37;;;25.43;;
60372;SDS011;46216;52.220;5.134;2022-12-18T00:41:10;67.40;;;26.87;;
60372;SDS011;46216;52.220;5.134;2022-12-18T00:43:37;65.13;;;26.07;;
60372;SDS011;46216;52.220;5.134;2022-12-18T00:46:03;70.57;;;27.07;;
60372;SDS011;46216;52.220;5.134;2022-12-18T00:48:29;67.73;;;26.03;;
60372;SDS011;46216;52.220;5.134;2022-12-18T00:50:55;64.13;;;26.07;;
60372;SDS011;46216;52.220;5.134;2022-12-18T00:53:20;61.53;;;24.97;;
60372;SDS011;46216;52.220;5.134;2022-12-18T00:55:46;61.80;;;26.20;;
60372;SDS011;46216;52.220;5.134;2022-12-18T00:58:12;67.00;;;26.03;;
60372;SDS011;46216;52.220;5.134;2022-12-18T01:00:38;66.67;;;26.67;;
60372;SDS011;46216;52.220;5.134;2022-12-18T01:03:04;66.13;;;26.33;;
60372;SDS011;46216;52.220;5.134;2022-12-18T01:05:30;68.67;;;25.67;;
60372;SDS011;46216;52.220;5.134;2022-12-18T01:07:56;63.57;;;26.83;;
60372;SDS011;46216;52.220;5.134;2022-12-18T01:10:22;63.43;;;25.90;;
60372;SDS011;46216;52.220;5.134;2022-12-18T01:12:47;71.20;;;26.80;;
60372;SDS011;46216;52.220;5.134;2022-12-18T01:15:13;63.53;;;26.53;;
60372;SDS011;46216;52.220;5.134;2022-12-18T01:17:39;70.80;;;28.50;;
60372;SDS011;46216;52.220;5.134;2022-12-18T01:20:05;65.33;;;27.07;;
60372;SDS011;46216;52.220;5.134;2022-12-18T01:22:31;63.20;;;25.30;;
60372;SDS011;46216;52.220;5.134;2022-12-18T01:24:59;70.17;;;27.97;;
60372;SDS011;46216;52.220;5.134;2022-12-18T01:27:24;60.40;;;24.80;;
60372;SDS011;46216;52.220;5.134;2022-12-18T01:29:50;58.70;;;25.77;;
60372;SDS011;46216;52.220;5.134;2022-12-18T01:32:16;63.13;;;25.10;;
60372;SDS011;46216;52.220;5.134;2022-12-18T01:34:41;60.40;;;25.50;;
60372;SDS011;46216;52.220;5.134;2022-12-18T01:37:07;58.67;;;24.33;;
60372;SDS011;46216;52.220;5.134;2022-12-18T01:39:32;56.80;;;25.10;;
60372;SDS011;46216;52.220;5.134;2022-12-18T01:42:02;60.87;;;26.70;;
60372;SDS011;46216;52.220;5.134;2022-12-18T01:47:39;61.37;;;24.20;;
60372;SDS011;46216;52.220;5.134;2022-12-18T01:53:04;58.07;;;24.37;;
60372;SDS011;46216;52.220;5.134;2022-12-18T01:55:35;56.90;;;24.37;;
60372;SDS011;46216;52.220;5.134;2022-12-18T01:58:05;60.67;;;25.77;;
60372;SDS011;46216;52.220;5.134;2022-12-18T02:00:31;60.60;;;25.50;;
60372;SDS011;46216;52.220;5.134;2022-12-18T02:02:56;60.73;;;25.80;;
60372;SDS011;46216;52.220;5.134;2022-12-18T02:05:26;60.27;;;25.00;;
60372;SDS011;46216;52.220;5.134;2022-12-18T02:13:12;65.27;;;25.70;;
60372;SDS011;46216;52.220;5.134;2022-12-18T02:18:32;64.07;;;24.60;;
60372;SDS011;46216;52.220;5.134;2022-12-18T02:21:08;62.93;;;24.53;;
60372;SDS011;46216;52.220;5.134;2022-12-18T02:23:42;62.97;;;26.60;;
60372;SDS011;46216;52.220;5.134;2022-12-18T02:26:31;60.47;;;24.20;;
60372;SDS011;46216;52.220;5.134;2022-12-18T02:29:22;58.03;;;24.93;;
60372;SDS011;46216;52.220;5.134;2022-12-18T02:31:53;72.47;;;26.07;;
60372;SDS011;46216;52.220;5.134;2022-12-18T02:34:28;62.87;;;25.30;;
60372;SDS011;46216;52.220;5.134;2022-12-18T02:36:56;66.90;;;26.13;;
60372;SDS011;46216;52.220;5.134;2022-12-18T02:39:25;64.93;;;26.87;;
60372;SDS011;46216;52.220;5.134;2022-12-18T02:41:52;65.33;;;26.37;;
60372;SDS011;46216;52.220;5.134;2022-12-18T02:44:17;61.07;;;25.43;;
60372;SDS011;46216;52.220;5.134;2022-12-18T02:46:44;67.07;;;26.17;;
60372;SDS011;46216;52.220;5.134;2022-12-18T02:55:03;62.43;;;26.00;;
60372;SDS011;46216;52.220;5.134;2022-12-18T02:57:42;67.30;;;26.70;;
60372;SDS011;46216;52.220;5.134;2022-12-18T03:00:16;58.60;;;25.87;;
60372;SDS011;46216;52.220;5.134;2022-12-18T03:02:49;65.10;;;25.47;;
60372;SDS011;46216;52.220;5.134;2022-12-18T03:05:33;64.23;;;25.40;;
60372;SDS011;46216;52.220;5.134;2022-12-18T03:08:18;62.93;;;25.87;;
60372;SDS011;46216;52.220;5.134;2022-12-18T03:10:49;57.73;;;25.10;;
60372;SDS011;46216;52.220;5.134;2022-12-18T03:13:28;62.40;;;25.00;;
60372;SDS011;46216;52.220;5.134;2022-12-18T03:15:58;57.40;;;24.43;;
60372;SDS011;46216;52.220;5.134;2022-12-18T03:18:39;59.87;;;24.83;;
60372;SDS011;46216;52.220;5.134;2022-12-18T03:21:10;57.37;;;24.37;;
60372;SDS011;46216;52.220;5.134;2022-12-18T03:23:40;58.27;;;24.47;;
60372;SDS011;46216;52.220;5.134;2022-12-18T03:26:09;54.73;;;23.17;;
60372;SDS011;46216;52.220;5.134;2022-12-18T03:28:39;53.50;;;23.77;;
60372;SDS011;46216;52.220;5.134;2022-12-18T03:31:09;55.40;;;24.00;;
60372;SDS011;46216;52.220;5.134;2022-12-18T03:33:38;59.27;;;23.50;;
60372;SDS011;46216;52.220;5.134;2022-12-18T03:36:17;59.63;;;24.53;;
60372;SDS011;46216;52.220;5.134;2022-12-18T03:38:43;54.60;;;23.60;;
60372;SDS011;46216;52.220;5.134;2022-12-18T03:41:19;55.20;;;24.60;;
60372;SDS011;46216;52.220;5.134;2022-12-18T03:43:58;58.97;;;24.10;;
60372;SDS011;46216;52.220;5.134;2022-12-18T03:46:35;61.17;;;24.30;;
60372;SDS011;46216;52.220;5.134;2022-12-18T03:51:47;61.87;;;24.87;;
60372;SDS011;46216;52.220;5.134;2022-12-18T03:54:17;50.87;;;23.20;;
60372;SDS011;46216;52.220;5.134;2022-12-18T03:56:47;56.13;;;24.73;;
60372;SDS011;46216;52.220;5.134;2022-12-18T03:59:19;60.50;;;24.27;;
60372;SDS011;46216;52.220;5.134;2022-12-18T04:01:46;53.37;;;24.67;;
60372;SDS011;46216;52.220;5.134;2022-12-18T04:04:14;54.33;;;25.17;;
60372;SDS011;46216;52.220;5.134;2022-12-18T04:06:42;61.63;;;25.47;;
60372;SDS011;46216;52.220;5.134;2022-12-18T04:09:10;51.10;;;24.07;;
60372;SDS011;46216;52.220;5.134;2022-12-18T04:11:35;53.53;;;24.03;;
60372;SDS011;46216;52.220;5.134;2022-12-18T04:14:01;56.00;;;24.80;;
60372;SDS011;46216;52.220;5.134;2022-12-18T04:16:26;56.50;;;25.13;;
60372;SDS011;46216;52.220;5.134;2022-12-18T04:18:53;58.10;;;24.63;;
60372;SDS011;46216;52.220;5.134;2022-12-18T04:21:18;52.80;;;24.13;;
60372;SDS011;46216;52.220;5.134;2022-12-18T04:23:44;52.50;;;23.77;;
60372;SDS011;46216;52.220;5.134;2022-12-18T04:26:10;55.57;;;24.97;;
60372;SDS011;46216;52.220;5.134;2022-12-18T04:28:35;59.17;;;24.50;;
60372;SDS011;46216;52.220;5.134;2022-12-18T04:31:01;53.83;;;24.73;;
60372;SDS011;46216;52.220;5.134;2022-12-18T04:33:26;52.70;;;23.63;;
60372;SDS011;46216;52.220;5.134;2022-12-18T04:35:51;51.23;;;24.60;;
60372;SDS011;46216;52.220;5.134;2022-12-18T04:38:17;52.30;;;24.33;;
60372;SDS011;46216;52.220;5.134;2022-12-18T04:40:42;45.33;;;22.47;;
60372;SDS011;46216;52.220;5.134;2022-12-18T04:43:08;51.30;;;23.20;;
60372;SDS011;46216;52.220;5.134;2022-12-18T04:45:33;53.33;;;23.47;;
60372;SDS011;46216;52.220;5.134;2022-12-18T04:47:59;45.57;;;22.70;;
60372;SDS011;46216;52.220;5.134;2022-12-18T04:50:26;49.00;;;22.60;;
60372;SDS011;46216;52.220;5.134;2022-12-18T04:52:51;49.03;;;22.00;;
60372;SDS011;46216;52.220;5.134;2022-12-18T04:55:20;45.40;;;22.30;;
60372;SDS011;46216;52.220;5.134;2022-12-18T04:57:45;44.63;;;22.83;;
60372;SDS011;46216;52.220;5.134;2022-12-18T05:00:11;49.47;;;21.93;;
60372;SDS011;46216;52.220;5.134;2022-12-18T05:02:37;43.33;;;20.80;;
60372;SDS011;46216;52.220;5.134;2022-12-18T05:05:03;45.87;;;20.83;;
60372;SDS011;46216;52.220;5.134;2022-12-18T05:07:28;44.47;;;20.77;;
60372;SDS011;46216;52.220;5.134;2022-12-18T05:09:54;43.17;;;20.77;;
60372;SDS011;46216;52.220;5.134;2022-12-18T05:12:19;45.97;;;21.07;;
60372;SDS011;46216;52.220;5.134;2022-12-18T05:14:44;45.77;;;21.23;;
60372;SDS011;46216;52.220;5.134;2022-12-18T05:17:10;39.80;;;20.30;;
60372;SDS011;46216;52.220;5.134;2022-12-18T05:19:35;40.07;;;19.73;;
60372;SDS011;46216;52.220;5.134;2022-12-18T05:22:03;41.20;;;19.07;;
60372;SDS011;46216;52.220;5.134;2022-12-18T05:24:28;38.40;;;19.40;;
60372;SDS011;46216;52.220;5.134;2022-12-18T05:26:54;39.43;;;19.37;;
60372;SDS011;46216;52.220;5.134;2022-12-18T05:29:19;39.17;;;19.27;;
60372;SDS011;46216;52.220;5.134;2022-12-18T05:31:44;34.53;;;17.90;;
60372;SDS011;46216;52.220;5.134;2022-12-18T05:34:10;35.87;;;18.17;;
60372;SDS011;46216;52.220;5.134;2022-12-18T05:36:35;38.90;;;19.17;;
60372;SDS011;46216;52.220;5.134;2022-12-18T05:39:01;35.70;;;18.27;;
60372;SDS011;46216;52.220;5.134;2022-12-18T05:41:27;37.37;;;17.87;;
60372;SDS011;46216;52.220;5.134;2022-12-18T05:43:52;36.73;;;17.43;;
60372;SDS011;46216;52.220;5.134;2022-12-18T05:46:17;34.50;;;17.80;;
60372;SDS011;46216;52.220;5.134;2022-12-18T05:48:45;31.47;;;17.00;;
60372;SDS011;46216;52.220;5.134;2022-12-18T05:51:14;34.47;;;16.83;;
60372;SDS011;46216;52.220;5.134;2022-12-18T05:53:42;33.30;;;17.47;;
60372;SDS011;46216;52.220;5.134;2022-12-18T05:56:09;37.43;;;17.23;;
60372;SDS011;46216;52.220;5.134;2022-12-18T05:58:36;34.93;;;16.77;;
60372;SDS011;46216;52.220;5.134;2022-12-18T06:01:09;33.00;;;16.90;;
60372;SDS011;46216;52.220;5.134;2022-12-18T06:03:44;30.63;;;15.57;;
60372;SDS011;46216;52.220;5.134;2022-12-18T06:06:13;34.10;;;15.30;;
60372;SDS011;46216;52.220;5.134;2022-12-18T06:08:44;32.53;;;16.53;;
60372;SDS011;46216;52.220;5.134;2022-12-18T06:11:10;32.10;;;16.10;;
60372;SDS011;46216;52.220;5.134;2022-12-18T06:13:36;33.53;;;15.87;;
60372;SDS011;46216;52.220;5.134;2022-12-18T06:16:04;29.67;;;15.67;;
60372;SDS011;46216;52.220;5.134;2022-12-18T06:18:30;30.60;;;15.53;;
60372;SDS011;46216;52.220;5.134;2022-12-18T06:20:55;38.83;;;16.67;;
60372;SDS011;46216;52.220;5.134;2022-12-18T06:23:21;32.07;;;16.30;;
60372;SDS011;46216;52.220;5.134;2022-12-18T06:25:47;30.37;;;15.33;;
60372;SDS011;46216;52.220;5.134;2022-12-18T06:28:12;32.43;;;15.67;;
60372;SDS011;46216;52.220;5.134;2022-12-18T06:30:38;29.70;;;15.27;;
60372;SDS011;46216;52.220;5.134;2022-12-18T06:33:03;29.20;;;15.33;;
60372;SDS011;46216;52.220;5.134;2022-12-18T06:35:28;33.73;;;16.93;;
60372;SDS011;46216;52.220;5.134;2022-12-18T06:37:53;29.97;;;16.30;;
60372;SDS011;46216;52.220;5.134;2022-12-18T06:40:19;30.87;;;15.13;;
60372;SDS011;46216;52.220;5.134;2022-12-18T06:42:44;31.20;;;15.40;;
60372;SDS011;46216;52.220;5.134;2022-12-18T06:45:09;31.20;;;15.20;;
60372;SDS011;46216;52.220;5.134;2022-12-18T06:47:36;26.47;;;14.50;;
60372;SDS011;46216;52.220;5.134;2022-12-18T06:50:01;30.03;;;15.37;;
60372;SDS011;46216;52.220;5.134;2022-12-18T06:52:27;26.97;;;15.07;;
60372;SDS011;46216;52.220;5.134;2022-12-18T06:54:52;29.67;;;15.23;;
60372;SDS011;46216;52.220;5.134;2022-12-18T06:57:18;25.57;;;13.97;;
60372;SDS011;46216;52.220;5.134;2022-12-18T06:59:43;28.30;;;14.93;;
60372;SDS011;46216;52.220;5.134;2022-12-18T07:02:10;28.50;;;14.70;;
60372;SDS011;46216;52.220;5.134;2022-12-18T07:04:37;28.80;;;14.80;;
60372;SDS011;46216;52.220;5.134;2022-12-18T07:07:02;30.70;;;14.80;;
60372;SDS011;46216;52.220;5.134;2022-12-18T07:09:28;25.50;;;13.30;;
60372;SDS011;46216;52.220;5.134;2022-12-18T07:11:53;25.77;;;14.03;;
60372;SDS011;46216;52.220;5.134;2022-12-18T07:14:18;25.87;;;13.87;;
60372;SDS011;46216;52.220;5.134;2022-12-18T07:16:44;23.57;;;13.37;;
60372;SDS011;46216;52.220;5.134;2022-12-18T07:19:09;23.23;;;12.77;;
60372;SDS011;46216;52.220;5.134;2022-12-18T07:21:34;28.13;;;13.57;;
60372;SDS011;46216;52.220;5.134;2022-12-18T07:24:00;24.67;;;13.57;;
60372;SDS011;46216;52.220;5.134;2022-12-18T07:26:25;26.53;;;13.97;;
60372;SDS011;46216;52.220;5.134;2022-12-18T07:28:53;28.17;;;13.73;;
60372;SDS011;46216;52.220;5.134;2022-12-18T07:31:20;25.80;;;13.23;;
60372;SDS011;46216;52.220;5.134;2022-12-18T07:33:47;25.67;;;14.00;;
60372;SDS011;46216;52.220;5.134;2022-12-18T07:36:13;24.37;;;13.57;;
60372;SDS011;46216;52.220;5.134;2022-12-18T07:38:39;28.63;;;13.67;;
60372;SDS011;46216;52.220;5.134;2022-12-18T07:41:09;26.60;;;13.97;;
60372;SDS011;46216;52.220;5.134;2022-12-18T07:43:36;24.00;;;13.90;;
60372;SDS011;46216;52.220;5.134;2022-12-18T07:46:01;26.53;;;14.07;;
60372;SDS011;46216;52.220;5.134;2022-12-18T07:48:27;27.03;;;13.90;;
60372;SDS011;46216;52.220;5.134;2022-12-18T07:50:57;27.53;;;13.77;;
60372;SDS011;46216;52.220;5.134;2022-12-18T07:53:26;25.13;;;13.43;;
60372;SDS011;46216;52.220;5.134;2022-12-18T07:55:56;25.30;;;12.77;;
60372;SDS011;46216;52.220;5.134;2022-12-18T07:58:22;25.27;;;13.20;;
60372;SDS011;46216;52.220;5.134;2022-12-18T08:00:47;25.23;;;13.27;;
60372;SDS011;46216;52.220;5.134;2022-12-18T08:03:13;24.13;;;14.00;;
60372;SDS011;46216;52.220;5.134;2022-12-18T08:05:38;24.37;;;12.90;;
60372;SDS011;46216;52.220;5.134;2022-12-18T08:08:03;25.40;;;13.10;;
60372;SDS011;46216;52.220;5.134;2022-12-18T08:10:29;27.70;;;14.10;;
60372;SDS011;46216;52.220;5.134;2022-12-18T08:12:54;23.20;;;13.50;;
60372;SDS011;46216;52.220;5.134;2022-12-18T08:15:20;21.47;;;12.30;;
60372;SDS011;46216;52.220;5.134;2022-12-18T08:17:45;24.07;;;13.17;;
60372;SDS011;46216;52.220;5.134;2022-12-18T08:20:10;23.97;;;12.77;;
60372;SDS011;46216;52.220;5.134;2022-12-18T08:22:37;24.60;;;13.00;;
60372;SDS011;46216;52.220;5.134;2022-12-18T08:25:03;24.23;;;13.50;;
60372;SDS011;46216;52.220;5.134;2022-12-18T08:27:28;22.77;;;13.40;;
60372;SDS011;46216;52.220;5.134;2022-12-18T08:29:54;24.57;;;12.70;;
60372;SDS011;46216;52.220;5.134;2022-12-18T08:32:20;22.60;;;13.27;;
60372;SDS011;46216;52.220;5.134;2022-12-18T08:34:45;24.47;;;13.53;;
60372;SDS011;46216;52.220;5.134;2022-12-18T08:37:10;23.53;;;12.73;;
60372;SDS011;46216;52.220;5.134;2022-12-18T08:39:36;24.07;;;12.80;;
60372;SDS011;46216;52.220;5.134;2022-12-18T08:42:01;26.47;;;12.93;;
60372;SDS011;46216;52.220;5.134;2022-12-18T08:44:45;22.50;;;13.13;;
60372;SDS011;46216;52.220;5.134;2022-12-18T08:47:11;21.20;;;13.10;;
60372;SDS011;46216;52.220;5.134;2022-12-18T08:49:36;23.60;;;13.43;;
60372;SDS011;46216;52.220;5.134;2022-12-18T08:52:02;20.97;;;12.60;;
60372;SDS011;46216;52.220;5.134;2022-12-18T08:54:27;21.60;;;13.30;;
60372;SDS011;46216;52.220;5.134;2022-12-18T08:56:53;24.97;;;14.03;;
60372;SDS011;46216;52.220;5.134;2022-12-18T08:59:19;23.60;;;13.47;;
60372;SDS011;46216;52.220;5.134;2022-12-18T09:01:45;26.17;;;14.00;;
60372;SDS011;46216;52.220;5.134;2022-12-18T09:04:11;22.73;;;13.07;;
60372;SDS011;46216;52.220;5.134;2022-12-18T09:06:37;25.00;;;13.97;;
60372;SDS011;46216;52.220;5.134;2022-12-18T09:09:04;27.37;;;14.77;;
60372;SDS011;46216;52.220;5.134;2022-12-18T09:11:30;29.33;;;14.47;;
60372;SDS011;46216;52.220;5.134;2022-12-18T09:13:57;24.40;;;13.80;;
60372;SDS011;46216;52.220;5.134;2022-12-18T09:16:23;25.37;;;14.13;;
60372;SDS011;46216;52.220;5.134;2022-12-18T09:18:50;24.47;;;14.13;;
60372;SDS011;46216;52.220;5.134;2022-12-18T09:21:16;25.37;;;13.83;;
60372;SDS011;46216;52.220;5.134;2022-12-18T09:23:43;24.13;;;14.83;;
60372;SDS011;46216;52.220;5.134;2022-12-18T09:26:09;23.73;;;13.50;;
60372;SDS011;46216;52.220;5.134;2022-12-18T09:28:34;22.90;;;14.50;;
60372;SDS011;46216;52.220;5.134;2022-12-18T09:31:04;26.13;;;14.97;;
60372;SDS011;46216;52.220;5.134;2022-12-18T09:33:34;22.73;;;13.80;;
60372;SDS011;46216;52.220;5.134;2022-12-18T09:36:01;22.33;;;13.33;;
60372;SDS011;46216;52.220;5.134;2022-12-18T09:38:28;25.37;;;13.57;;
60372;SDS011;46216;52.220;5.134;2022-12-18T09:40:56;20.43;;;13.17;;
60372;SDS011;46216;52.220;5.134;2022-12-18T09:43:45;20.27;;;13.40;;
60372;SDS011;46216;52.220;5.134;2022-12-18T09:46:34;22.83;;;13.10;;
60372;SDS011;46216;52.220;5.134;2022-12-18T09:49:05;23.20;;;13.90;;
60372;SDS011;46216;52.220;5.134;2022-12-18T09:51:44;24.83;;;13.93;;
60372;SDS011;46216;52.220;5.134;2022-12-18T09:54:13;22.70;;;12.97;;
60372;SDS011;46216;52.220;5.134;2022-12-18T09:56:43;20.70;;;12.83;;
60372;SDS011;46216;52.220;5.134;2022-12-18T09:59:19;23.63;;;13.83;;
60372;SDS011;46216;52.220;5.134;2022-12-18T10:01:49;21.60;;;13.93;;
60372;SDS011;46216;52.220;5.134;2022-12-18T10:04:14;22.87;;;13.30;;
60372;SDS011;46216;52.220;5.134;2022-12-18T10:06:58;22.33;;;13.17;;
60372;SDS011;46216;52.220;5.134;2022-12-18T10:09:43;20.73;;;13.07;;
60372;SDS011;46216;52.220;5.134;2022-12-18T10:12:30;23.27;;;13.90;;
60372;SDS011;46216;52.220;5.134;2022-12-18T10:15:10;20.13;;;12.50;;
60372;SDS011;46216;52.220;5.134;2022-12-18T10:18:21;21.67;;;13.17;;
60372;SDS011;46216;52.220;5.134;2022-12-18T10:20:43;21.33;;;12.33;;
60372;SDS011;46216;52.220;5.134;2022-12-18T10:25:53;24.00;;;13.83;;
60372;SDS011;46216;52.220;5.134;2022-12-18T10:28:24;21.53;;;12.83;;
60372;SDS011;46216;52.220;5.134;2022-12-18T10:30:51;21.23;;;13.33;;
60372;SDS011;46216;52.220;5.134;2022-12-18T10:33:21;22.23;;;12.27;;
60372;SDS011;46216;52.220;5.134;2022-12-18T10:35:49;22.60;;;12.90;;
60372;SDS011;46216;52.220;5.134;2022-12-18T10:40:50;20.60;;;12.87;;
60372;SDS011;46216;52.220;5.134;2022-12-18T10:48:36;20.80;;;13.13;;
60372;SDS011;46216;52.220;5.134;2022-12-18T10:51:05;20.97;;;12.10;;
60372;SDS011;46216;52.220;5.134;2022-12-18T10:53:33;21.37;;;12.70;;
60372;SDS011;46216;52.220;5.134;2022-12-18T10:56:02;20.13;;;12.23;;
60372;SDS011;46216;52.220;5.134;2022-12-18T10:58:36;23.47;;;13.03;;
60372;SDS011;46216;52.220;5.134;2022-12-18T11:01:16;19.47;;;12.13;;
60372;SDS011;46216;52.220;5.134;2022-12-18T11:06:19;18.67;;;12.30;;
60372;SDS011;46216;52.220;5.134;2022-12-18T11:09:59;21.27;;;13.13;;
60372;SDS011;46216;52.220;5.134;2022-12-18T11:11:50;20.97;;;12.27;;
60372;SDS011;46216;52.220;5.134;2022-12-18T11:16:50;19.90;;;12.13;;
60372;SDS011;46216;52.220;5.134;2022-12-18T11:22:24;20.20;;;12.07;;
60372;SDS011;46216;52.220;5.134;2022-12-18T11:25:16;22.53;;;12.60;;
60372;SDS011;46216;52.220;5.134;2022-12-18T11:30:51;19.63;;;12.50;;
60372;SDS011;46216;52.220;5.134;2022-12-18T11:36:43;18.07;;;11.33;;
60372;SDS011;46216;52.220;5.134;2022-12-18T11:39:33;17.67;;;11.80;;
60372;SDS011;46216;52.220;5.134;2022-12-18T11:42:18;20.53;;;12.03;;
60372;SDS011;46216;52.220;5.134;2022-12-18T11:44:49;18.33;;;11.63;;
60372;SDS011;46216;52.220;5.134;2022-12-18T11:47:21;18.83;;;12.27;;
60372;SDS011;46216;52.220;5.134;2022-12-18T11:49:49;17.70;;;11.60;;
60372;SDS011;46216;52.220;5.134;2022-12-18T11:52:16;19.17;;;12.13;;
60372;SDS011;46216;52.220;5.134;2022-12-18T11:55:07;18.53;;;11.43;;
60372;SDS011;46216;52.220;5.134;2022-12-18T12:01:07;20.17;;;12.10;;
60372;SDS011;46216;52.220;5.134;2022-12-18T12:15:03;17.77;;;11.50;;
60372;SDS011;46216;52.220;5.134;2022-12-18T12:20:46;17.07;;;11.00;;
60372;SDS011;46216;52.220;5.134;2022-12-18T12:26:32;18.23;;;11.30;;
60372;SDS011;46216;52.220;5.134;2022-12-18T12:31:56;19.30;;;11.43;;
60372;SDS011;46216;52.220;5.134;2022-12-18T12:34:36;15.60;;;10.37;;
60372;SDS011;46216;52.220;5.134;2022-12-18T12:40:17;18.20;;;11.43;;
60372;SDS011;46216;52.220;5.134;2022-12-18T12:42:58;19.70;;;11.80;;
60372;SDS011;46216;52.220;5.134;2022-12-18T12:48:16;17.77;;;11.80;;
60372;SDS011;46216;52.220;5.134;2022-12-18T12:50:46;17.73;;;11.90;;
60372;SDS011;46216;52.220;5.134;2022-12-18T12:53:15;18.57;;;11.90;;
60372;SDS011;46216;52.220;5.134;2022-12-18T12:55:47;17.93;;;11.53;;
60372;SDS011;46216;52.220;5.134;2022-12-18T13:00:44;19.40;;;11.73;;
60372;SDS011;46216;52.220;5.134;2022-12-18T13:03:23;18.97;;;11.53;;
60372;SDS011;46216;52.220;5.134;2022-12-18T13:06:03;19.23;;;11.73;;
60372;SDS011;46216;52.220;5.134;2022-12-18T13:08:51;17.87;;;11.80;;
60372;SDS011;46216;52.220;5.134;2022-12-18T13:14:37;18.13;;;11.10;;
60372;SDS011;46216;52.220;5.134;2022-12-18T13:19:47;17.47;;;11.13;;
60372;SDS011;46216;52.220;5.134;2022-12-18T13:22:34;18.00;;;11.07;;
60372;SDS011;46216;52.220;5.134;2022-12-18T13:25:02;20.73;;;11.67;;
60372;SDS011;46216;52.220;5.134;2022-12-18T13:41:00;17.57;;;11.50;;
60372;SDS011;46216;52.220;5.134;2022-12-18T13:43:29;20.20;;;11.93;;
60372;SDS011;46216;52.220;5.134;2022-12-18T13:48:55;17.10;;;11.27;;
60372;SDS011;46216;52.220;5.134;2022-12-18T13:51:23;16.90;;;10.53;;
60372;SDS011;46216;52.220;5.134;2022-12-18T13:53:53;19.00;;;11.07;;
60372;SDS011;46216;52.220;5.134;2022-12-18T13:56:31;20.57;;;11.93;;
60372;SDS011;46216;52.220;5.134;2022-12-18T14:01:52;16.63;;;10.87;;
60372;SDS011;46216;52.220;5.134;2022-12-18T14:04:19;17.57;;;11.10;;
60372;SDS011;46216;52.220;5.134;2022-12-18T14:06:50;19.37;;;11.83;;
60372;SDS011;46216;52.220;5.134;2022-12-18T14:09:19;18.33;;;11.23;;
60372;SDS011;46216;52.220;5.134;2022-12-18T14:11:50;17.50;;;11.67;;
60372;SDS011;46216;52.220;5.134;2022-12-18T14:14:16;18.00;;;11.60;;
60372;SDS011;46216;52.220;5.134;2022-12-18T14:16:43;20.37;;;12.10;;
60372;SDS011;46216;52.220;5.134;2022-12-18T14:19:15;17.03;;;11.53;;
60372;SDS011;46216;52.220;5.134;2022-12-18T14:21:48;18.13;;;11.80;;
60372;SDS011;46216;52.220;5.134;2022-12-18T14:24:16;20.37;;;11.90;;
60372;SDS011;46216;52.220;5.134;2022-12-18T14:26:44;17.90;;;11.17;;
60372;SDS011;46216;52.220;5.134;2022-12-18T14:29:24;18.90;;;12.00;;
60372;SDS011;46216;52.220;5.134;2022-12-18T14:35:12;18.40;;;11.57;;
60372;SDS011;46216;52.220;5.134;2022-12-18T14:37:38;18.03;;;11.00;;
60372;SDS011;46216;52.220;5.134;2022-12-18T14:40:04;17.47;;;11.33;;
60372;SDS011;46216;52.220;5.134;2022-12-18T14:42:30;18.63;;;11.30;;
60372;SDS011;46216;52.220;5.134;2022-12-18T14:47:59;20.83;;;11.40;;
60372;SDS011;46216;52.220;5.134;2022-12-18T14:50:25;17.77;;;10.73;;
60372;SDS011;46216;52.220;5.134;2022-12-18T14:52:51;17.83;;;11.00;;
60372;SDS011;46216;52.220;5.134;2022-12-18T14:55:17;17.87;;;11.30;;
60372;SDS011;46216;52.220;5.134;2022-12-18T14:57:45;18.67;;;11.47;;
60372;SDS011;46216;52.220;5.134;2022-12-18T15:00:21;16.60;;;11.10;;
60372;SDS011;46216;52.220;5.134;2022-12-18T15:02:52;21.00;;;11.53;;
60372;SDS011;46216;52.220;5.134;2022-12-18T15:05:20;18.60;;;11.40;;
60372;SDS011;46216;52.220;5.134;2022-12-18T15:07:51;18.53;;;11.80;;
60372;SDS011;46216;52.220;5.134;2022-12-18T15:10:19;18.53;;;11.70;;
60372;SDS011;46216;52.220;5.134;2022-12-18T15:12:48;18.83;;;11.37;;
60372;SDS011;46216;52.220;5.134;2022-12-18T15:20:41;18.40;;;11.53;;
60372;SDS011;46216;52.220;5.134;2022-12-18T15:25:44;18.03;;;11.40;;
60372;SDS011;46216;52.220;5.134;2022-12-18T15:28:19;17.07;;;11.73;;
60372;SDS011;46216;52.220;5.134;2022-12-18T15:30:58;20.27;;;12.40;;
60372;SDS011;46216;52.220;5.134;2022-12-18T15:33:26;19.90;;;11.80;;
60372;SDS011;46216;52.220;5.134;2022-12-18T15:35:58;19.57;;;12.43;;
60372;SDS011;46216;52.220;5.134;2022-12-18T15:38:26;19.87;;;11.67;;
60372;SDS011;46216;52.220;5.134;2022-12-18T15:40:52;18.27;;;11.37;;
60372;SDS011;46216;52.220;5.134;2022-12-18T15:43:19;18.83;;;11.93;;
60372;SDS011;46216;52.220;5.134;2022-12-18T15:46:21;18.93;;;11.67;;
60372;SDS011;46216;52.220;5.134;2022-12-18T15:48:51;20.57;;;11.97;;
60372;SDS011;46216;52.220;5.134;2022-12-18T15:51:28;20.70;;;12.13;;
60372;SDS011;46216;52.220;5.134;2022-12-18T15:53:58;19.83;;;12.33;;
60372;SDS011;46216;52.220;5.134;2022-12-18T15:56:25;21.03;;;12.40;;
60372;SDS011;46216;52.220;5.134;2022-12-18T15:59:11;23.23;;;12.17;;
60372;SDS011;46216;52.220;5.134;2022-12-18T16:01:39;18.57;;;11.67;;
60372;SDS011;46216;52.220;5.134;2022-12-18T16:04:05;19.30;;;12.23;;
60372;SDS011;46216;52.220;5.134;2022-12-18T16:06:30;20.90;;;12.27;;
60372;SDS011;46216;52.220;5.134;2022-12-18T16:08:56;19.73;;;12.67;;
60372;SDS011;46216;52.220;5.134;2022-12-18T16:11:22;20.43;;;12.43;;
60372;SDS011;46216;52.220;5.134;2022-12-18T16:14:16;18.87;;;11.57;;
60372;SDS011;46216;52.220;5.134;2022-12-18T16:16:44;19.23;;;11.70;;
60372;SDS011;46216;52.220;5.134;2022-12-18T16:19:10;18.33;;;12.20;;
60372;SDS011;46216;52.220;5.134;2022-12-18T16:21:36;18.83;;;11.63;;
60372;SDS011;46216;52.220;5.134;2022-12-18T16:24:04;19.37;;;12.70;;
60372;SDS011;46216;52.220;5.134;2022-12-18T16:26:31;19.87;;;12.10;;
60372;SDS011;46216;52.220;5.134;2022-12-18T16:28:56;18.40;;;12.20;;
60372;SDS011;46216;52.220;5.134;2022-12-18T16:31:21;22.17;;;12.50;;
60372;SDS011;46216;52.220;5.134;2022-12-18T16:33:46;20.03;;;13.17;;